sensor_id;sensor_type;location;lat;lon;timestamp;P1;durP1;ratioP1;P2;durP2;ratioP2
76593;SDS011;65482;50.240;14.302;2023-05-07T00:00:08;22.70;;;13.68;;
76593;SDS011;65482;50.240;14.302;2023-05-07T00:02:54;20.55;;;13.55;;
76593;SDS011;65482;50.240;14.302;2023-05-07T00:05:19;22.55;;;13.90;;
76593;SDS011;65482;50.240;14.302;2023-05-07T00:07:45;24.10;;;14.07;;
76593;SDS011;65482;50.240;14.302;2023-05-07T00:10:11;21.50;;;14.63;;
76593;SDS011;65482;50.240;14.302;2023-05-07T00:12:37;23.67;;;15.38;;
76593;SDS011;65482;50.240;14.302;2023-05-07T00:15:04;24.77;;;15.32;;
76593;SDS011;65482;50.240;14.302;2023-05-07T00:17:30;24.52;;;16.13;;
76593;SDS011;65482;50.240;14.302;2023-05-07T00:19:56;23.45;;;15.02;;
76593;SDS011;65482;50.240;14.302;2023-05-07T00:22:21;21.85;;;14.48;;
76593;SDS011;65482;50.240;14.302;2023-05-07T00:24:47;18.23;;;12.95;;
76593;SDS011;65482;50.240;14.302;2023-05-07T00:27:12;19.95;;;12.82;;
76593;SDS011;65482;50.240;14.302;2023-05-07T00:29:38;22.30;;;13.23;;
76593;SDS011;65482;50.240;14.302;2023-05-07T00:32:04;24.88;;;12.85;;
76593;SDS011;65482;50.240;14.302;2023-05-07T00:34:30;19.35;;;12.07;;
76593;SDS011;65482;50.240;14.302;2023-05-07T00:36:55;19.60;;;12.45;;
76593;SDS011;65482;50.240;14.302;2023-05-07T00:39:21;20.75;;;12.55;;
76593;SDS011;65482;50.240;14.302;2023-05-07T00:41:46;18.83;;;12.55;;
76593;SDS011;65482;50.240;14.302;2023-05-07T00:44:14;18.85;;;12.18;;
76593;SDS011;65482;50.240;14.302;2023-05-07T00:46:40;19.00;;;12.60;;
76593;SDS011;65482;50.240;14.302;2023-05-07T00:49:06;18.83;;;11.73;;
76593;SDS011;65482;50.240;14.302;2023-05-07T00:51:32;16.20;;;11.85;;
76593;SDS011;65482;50.240;14.302;2023-05-07T00:53:59;17.30;;;11.15;;
76593;SDS011;65482;50.240;14.302;2023-05-07T00:56:26;17.75;;;10.82;;
76593;SDS011;65482;50.240;14.302;2023-05-07T00:58:52;13.40;;;8.63;;
76593;SDS011;65482;50.240;14.302;2023-05-07T01:01:18;14.30;;;9.38;;
76593;SDS011;65482;50.240;14.302;2023-05-07T01:03:44;13.40;;;9.18;;
76593;SDS011;65482;50.240;14.302;2023-05-07T01:06:09;13.90;;;8.13;;
76593;SDS011;65482;50.240;14.302;2023-05-07T01:08:38;14.25;;;8.48;;
76593;SDS011;65482;50.240;14.302;2023-05-07T01:11:05;13.07;;;7.47;;
76593;SDS011;65482;50.240;14.302;2023-05-07T01:13:32;12.77;;;7.45;;
76593;SDS011;65482;50.240;14.302;2023-05-07T01:15:59;12.65;;;7.93;;
76593;SDS011;65482;50.240;14.302;2023-05-07T01:18:25;11.13;;;7.10;;
76593;SDS011;65482;50.240;14.302;2023-05-07T01:20:51;11.20;;;7.32;;
76593;SDS011;65482;50.240;14.302;2023-05-07T01:23:18;11.38;;;7.63;;
76593;SDS011;65482;50.240;14.302;2023-05-07T01:25:50;9.70;;;6.78;;
76593;SDS011;65482;50.240;14.302;2023-05-07T01:28:16;10.73;;;6.63;;
76593;SDS011;65482;50.240;14.302;2023-05-07T01:30:42;10.77;;;6.80;;
76593;SDS011;65482;50.240;14.302;2023-05-07T01:33:13;10.98;;;6.97;;
76593;SDS011;65482;50.240;14.302;2023-05-07T01:35:41;9.18;;;6.22;;
76593;SDS011;65482;50.240;14.302;2023-05-07T01:38:11;9.90;;;6.90;;
76593;SDS011;65482;50.240;14.302;2023-05-07T01:40:37;10.35;;;6.65;;
76593;SDS011;65482;50.240;14.302;2023-05-07T01:43:03;11.65;;;7.00;;
76593;SDS011;65482;50.240;14.302;2023-05-07T01:45:29;10.05;;;6.57;;
76593;SDS011;65482;50.240;14.302;2023-05-07T01:47:55;10.57;;;6.47;;
76593;SDS011;65482;50.240;14.302;2023-05-07T01:50:22;10.65;;;5.95;;
76593;SDS011;65482;50.240;14.302;2023-05-07T01:52:50;11.32;;;6.70;;
76593;SDS011;65482;50.240;14.302;2023-05-07T01:55:15;9.98;;;6.10;;
76593;SDS011;65482;50.240;14.302;2023-05-07T01:57:41;10.80;;;6.47;;
76593;SDS011;65482;50.240;14.302;2023-05-07T02:00:07;9.73;;;6.13;;
76593;SDS011;65482;50.240;14.302;2023-05-07T02:02:34;10.63;;;6.30;;
76593;SDS011;65482;50.240;14.302;2023-05-07T02:05:00;11.05;;;7.07;;
76593;SDS011;65482;50.240;14.302;2023-05-07T02:07:27;10.80;;;7.07;;
76593;SDS011;65482;50.240;14.302;2023-05-07T02:09:52;12.68;;;7.13;;
76593;SDS011;65482;50.240;14.302;2023-05-07T02:12:19;11.57;;;6.85;;
76593;SDS011;65482;50.240;14.302;2023-05-07T02:14:45;10.82;;;7.28;;
76593;SDS011;65482;50.240;14.302;2023-05-07T02:17:12;10.38;;;7.03;;
76593;SDS011;65482;50.240;14.302;2023-05-07T02:19:37;10.77;;;7.20;;
76593;SDS011;65482;50.240;14.302;2023-05-07T02:22:03;10.68;;;6.82;;
76593;SDS011;65482;50.240;14.302;2023-05-07T02:24:28;11.57;;;7.05;;
76593;SDS011;65482;50.240;14.302;2023-05-07T02:26:54;11.15;;;6.90;;
76593;SDS011;65482;50.240;14.302;2023-05-07T02:29:19;11.00;;;6.50;;
76593;SDS011;65482;50.240;14.302;2023-05-07T02:31:45;12.68;;;7.30;;
76593;SDS011;65482;50.240;14.302;2023-05-07T02:34:10;11.02;;;6.75;;
76593;SDS011;65482;50.240;14.302;2023-05-07T02:36:36;11.70;;;7.15;;
76593;SDS011;65482;50.240;14.302;2023-05-07T02:39:02;10.88;;;6.60;;
76593;SDS011;65482;50.240;14.302;2023-05-07T02:41:28;12.30;;;7.30;;
76593;SDS011;65482;50.240;14.302;2023-05-07T02:43:53;12.45;;;7.00;;
76593;SDS011;65482;50.240;14.302;2023-05-07T02:46:19;11.10;;;7.32;;
76593;SDS011;65482;50.240;14.302;2023-05-07T02:48:44;11.75;;;7.25;;
76593;SDS011;65482;50.240;14.302;2023-05-07T02:51:10;11.95;;;7.40;;
76593;SDS011;65482;50.240;14.302;2023-05-07T02:53:36;10.77;;;7.10;;
76593;SDS011;65482;50.240;14.302;2023-05-07T02:56:02;12.05;;;7.15;;
76593;SDS011;65482;50.240;14.302;2023-05-07T02:58:27;12.18;;;7.45;;
76593;SDS011;65482;50.240;14.302;2023-05-07T03:00:53;11.30;;;8.02;;
76593;SDS011;65482;50.240;14.302;2023-05-07T03:03:19;12.43;;;7.68;;
76593;SDS011;65482;50.240;14.302;2023-05-07T03:05:46;11.43;;;7.18;;
76593;SDS011;65482;50.240;14.302;2023-05-07T03:08:11;12.57;;;7.07;;
76593;SDS011;65482;50.240;14.302;2023-05-07T03:10:37;12.27;;;7.30;;
76593;SDS011;65482;50.240;14.302;2023-05-07T03:13:03;11.25;;;7.28;;
76593;SDS011;65482;50.240;14.302;2023-05-07T03:15:29;12.18;;;7.30;;
76593;SDS011;65482;50.240;14.302;2023-05-07T03:17:54;11.13;;;7.28;;
76593;SDS011;65482;50.240;14.302;2023-05-07T03:20:20;13.43;;;7.40;;
76593;SDS011;65482;50.240;14.302;2023-05-07T03:22:47;12.32;;;7.78;;
76593;SDS011;65482;50.240;14.302;2023-05-07T03:25:12;12.32;;;7.53;;
76593;SDS011;65482;50.240;14.302;2023-05-07T03:27:39;13.98;;;7.90;;
76593;SDS011;65482;50.240;14.302;2023-05-07T03:30:05;12.70;;;7.95;;
76593;SDS011;65482;50.240;14.302;2023-05-07T03:32:32;13.18;;;7.95;;
76593;SDS011;65482;50.240;14.302;2023-05-07T03:34:57;12.70;;;8.07;;
76593;SDS011;65482;50.240;14.302;2023-05-07T03:37:23;14.50;;;7.68;;
76593;SDS011;65482;50.240;14.302;2023-05-07T03:39:48;9.85;;;7.18;;
76593;SDS011;65482;50.240;14.302;2023-05-07T03:42:14;11.63;;;7.13;;
76593;SDS011;65482;50.240;14.302;2023-05-07T03:44:40;12.45;;;7.22;;
76593;SDS011;65482;50.240;14.302;2023-05-07T03:47:05;10.68;;;7.00;;
76593;SDS011;65482;50.240;14.302;2023-05-07T03:49:31;10.27;;;6.25;;
76593;SDS011;65482;50.240;14.302;2023-05-07T03:51:56;11.60;;;7.65;;
76593;SDS011;65482;50.240;14.302;2023-05-07T03:54:22;10.38;;;6.40;;
76593;SDS011;65482;50.240;14.302;2023-05-07T03:56:48;10.55;;;6.70;;
76593;SDS011;65482;50.240;14.302;2023-05-07T03:59:14;11.60;;;7.25;;
76593;SDS011;65482;50.240;14.302;2023-05-07T04:01:39;9.15;;;6.43;;
76593;SDS011;65482;50.240;14.302;2023-05-07T04:04:05;10.40;;;6.75;;
76593;SDS011;65482;50.240;14.302;2023-05-07T04:06:31;9.90;;;6.78;;
76593;SDS011;65482;50.240;14.302;2023-05-07T04:08:57;9.75;;;6.78;;
76593;SDS011;65482;50.240;14.302;2023-05-07T04:11:23;12.60;;;7.53;;
76593;SDS011;65482;50.240;14.302;2023-05-07T04:13:49;10.73;;;7.57;;
76593;SDS011;65482;50.240;14.302;2023-05-07T04:16:14;9.80;;;6.55;;
76593;SDS011;65482;50.240;14.302;2023-05-07T04:18:40;10.88;;;7.38;;
76593;SDS011;65482;50.240;14.302;2023-05-07T04:21:06;9.82;;;6.55;;
76593;SDS011;65482;50.240;14.302;2023-05-07T04:23:39;11.23;;;7.73;;
76593;SDS011;65482;50.240;14.302;2023-05-07T04:26:05;11.60;;;7.60;;
76593;SDS011;65482;50.240;14.302;2023-05-07T04:28:30;10.73;;;7.38;;
76593;SDS011;65482;50.240;14.302;2023-05-07T04:30:56;10.75;;;7.05;;
76593;SDS011;65482;50.240;14.302;2023-05-07T04:33:21;9.75;;;6.85;;
76593;SDS011;65482;50.240;14.302;2023-05-07T04:35:47;11.55;;;7.35;;
76593;SDS011;65482;50.240;14.302;2023-05-07T04:38:12;9.77;;;6.88;;
76593;SDS011;65482;50.240;14.302;2023-05-07T04:40:38;9.43;;;6.85;;
76593;SDS011;65482;50.240;14.302;2023-05-07T04:43:04;9.50;;;6.45;;
76593;SDS011;65482;50.240;14.302;2023-05-07T04:45:29;11.95;;;6.70;;
76593;SDS011;65482;50.240;14.302;2023-05-07T04:47:55;10.50;;;6.88;;
76593;SDS011;65482;50.240;14.302;2023-05-07T04:50:21;10.10;;;6.38;;
76593;SDS011;65482;50.240;14.302;2023-05-07T04:52:48;9.93;;;5.85;;
76593;SDS011;65482;50.240;14.302;2023-05-07T04:55:15;8.07;;;5.78;;
76593;SDS011;65482;50.240;14.302;2023-05-07T04:57:41;7.50;;;5.65;;
76593;SDS011;65482;50.240;14.302;2023-05-07T05:00:06;8.18;;;5.80;;
76593;SDS011;65482;50.240;14.302;2023-05-07T05:02:34;8.98;;;5.80;;
76593;SDS011;65482;50.240;14.302;2023-05-07T05:05:00;8.40;;;5.90;;
76593;SDS011;65482;50.240;14.302;2023-05-07T05:07:27;8.38;;;5.80;;
76593;SDS011;65482;50.240;14.302;2023-05-07T05:09:53;9.80;;;5.63;;
76593;SDS011;65482;50.240;14.302;2023-05-07T05:12:20;9.45;;;6.35;;
76593;SDS011;65482;50.240;14.302;2023-05-07T05:14:46;7.65;;;5.60;;
76593;SDS011;65482;50.240;14.302;2023-05-07T05:17:12;7.45;;;5.25;;
76593;SDS011;65482;50.240;14.302;2023-05-07T05:19:37;8.18;;;5.90;;
76593;SDS011;65482;50.240;14.302;2023-05-07T05:22:03;7.15;;;4.97;;
76593;SDS011;65482;50.240;14.302;2023-05-07T05:24:29;7.30;;;5.05;;
76593;SDS011;65482;50.240;14.302;2023-05-07T05:26:55;7.63;;;4.57;;
76593;SDS011;65482;50.240;14.302;2023-05-07T05:29:21;8.82;;;4.82;;
76593;SDS011;65482;50.240;14.302;2023-05-07T05:31:47;6.60;;;4.40;;
76593;SDS011;65482;50.240;14.302;2023-05-07T05:34:13;6.30;;;4.38;;
76593;SDS011;65482;50.240;14.302;2023-05-07T05:36:38;7.18;;;4.32;;
76593;SDS011;65482;50.240;14.302;2023-05-07T05:39:04;6.13;;;4.15;;
76593;SDS011;65482;50.240;14.302;2023-05-07T05:41:30;5.47;;;4.00;;
76593;SDS011;65482;50.240;14.302;2023-05-07T05:43:55;6.38;;;4.13;;
76593;SDS011;65482;50.240;14.302;2023-05-07T05:46:21;6.38;;;4.43;;
76593;SDS011;65482;50.240;14.302;2023-05-07T05:48:47;6.85;;;4.25;;
76593;SDS011;65482;50.240;14.302;2023-05-07T05:51:12;6.88;;;4.70;;
76593;SDS011;65482;50.240;14.302;2023-05-07T05:53:38;7.13;;;4.60;;
76593;SDS011;65482;50.240;14.302;2023-05-07T05:56:03;6.32;;;4.40;;
76593;SDS011;65482;50.240;14.302;2023-05-07T05:58:29;6.65;;;4.68;;
76593;SDS011;65482;50.240;14.302;2023-05-07T06:00:55;6.10;;;4.53;;
76593;SDS011;65482;50.240;14.302;2023-05-07T06:03:22;5.68;;;4.38;;
76593;SDS011;65482;50.240;14.302;2023-05-07T06:05:49;5.82;;;4.22;;
76593;SDS011;65482;50.240;14.302;2023-05-07T06:08:15;5.70;;;4.50;;
76593;SDS011;65482;50.240;14.302;2023-05-07T06:10:41;5.75;;;3.70;;
76593;SDS011;65482;50.240;14.302;2023-05-07T06:13:07;4.93;;;3.78;;
76593;SDS011;65482;50.240;14.302;2023-05-07T06:15:33;4.32;;;3.60;;
76593;SDS011;65482;50.240;14.302;2023-05-07T06:17:58;4.60;;;3.75;;
76593;SDS011;65482;50.240;14.302;2023-05-07T06:20:24;5.18;;;3.78;;
76593;SDS011;65482;50.240;14.302;2023-05-07T06:22:50;5.40;;;3.72;;
76593;SDS011;65482;50.240;14.302;2023-05-07T06:25:15;5.30;;;3.90;;
76593;SDS011;65482;50.240;14.302;2023-05-07T06:27:41;5.80;;;3.97;;
76593;SDS011;65482;50.240;14.302;2023-05-07T06:30:08;5.25;;;4.10;;
76593;SDS011;65482;50.240;14.302;2023-05-07T06:32:33;5.03;;;3.97;;
76593;SDS011;65482;50.240;14.302;2023-05-07T06:34:59;5.07;;;3.75;;
76593;SDS011;65482;50.240;14.302;2023-05-07T06:37:25;5.32;;;4.28;;
76593;SDS011;65482;50.240;14.302;2023-05-07T06:39:50;7.15;;;4.07;;
76593;SDS011;65482;50.240;14.302;2023-05-07T06:42:16;5.60;;;4.28;;
76593;SDS011;65482;50.240;14.302;2023-05-07T06:44:41;5.60;;;4.30;;
76593;SDS011;65482;50.240;14.302;2023-05-07T06:47:07;6.30;;;4.80;;
76593;SDS011;65482;50.240;14.302;2023-05-07T06:49:33;5.93;;;4.53;;
76593;SDS011;65482;50.240;14.302;2023-05-07T06:51:58;6.68;;;4.63;;
76593;SDS011;65482;50.240;14.302;2023-05-07T06:54:24;7.93;;;4.40;;
76593;SDS011;65482;50.240;14.302;2023-05-07T06:56:50;6.53;;;4.57;;
76593;SDS011;65482;50.240;14.302;2023-05-07T06:59:15;5.80;;;4.70;;
76593;SDS011;65482;50.240;14.302;2023-05-07T07:01:41;6.07;;;4.50;;
76593;SDS011;65482;50.240;14.302;2023-05-07T07:04:07;6.55;;;4.47;;
76593;SDS011;65482;50.240;14.302;2023-05-07T07:06:33;6.25;;;5.03;;
76593;SDS011;65482;50.240;14.302;2023-05-07T07:08:59;6.03;;;4.72;;
76593;SDS011;65482;50.240;14.302;2023-05-07T07:11:25;6.97;;;4.80;;
76593;SDS011;65482;50.240;14.302;2023-05-07T07:13:51;6.75;;;4.95;;
76593;SDS011;65482;50.240;14.302;2023-05-07T07:16:16;6.70;;;4.68;;
76593;SDS011;65482;50.240;14.302;2023-05-07T07:18:42;7.35;;;5.00;;
76593;SDS011;65482;50.240;14.302;2023-05-07T07:21:08;7.10;;;4.85;;
76593;SDS011;65482;50.240;14.302;2023-05-07T07:23:33;6.88;;;5.38;;
76593;SDS011;65482;50.240;14.302;2023-05-07T07:25:59;6.05;;;4.63;;
76593;SDS011;65482;50.240;14.302;2023-05-07T07:28:24;6.82;;;5.25;;
76593;SDS011;65482;50.240;14.302;2023-05-07T07:30:50;6.65;;;5.05;;
76593;SDS011;65482;50.240;14.302;2023-05-07T07:33:17;6.20;;;4.70;;
76593;SDS011;65482;50.240;14.302;2023-05-07T07:35:42;6.22;;;4.45;;
76593;SDS011;65482;50.240;14.302;2023-05-07T07:38:08;6.18;;;4.85;;
76593;SDS011;65482;50.240;14.302;2023-05-07T07:40:34;6.25;;;4.45;;
76593;SDS011;65482;50.240;14.302;2023-05-07T07:43:00;5.88;;;4.75;;
76593;SDS011;65482;50.240;14.302;2023-05-07T07:45:26;6.32;;;4.70;;
76593;SDS011;65482;50.240;14.302;2023-05-07T07:47:52;7.28;;;4.90;;
76593;SDS011;65482;50.240;14.302;2023-05-07T07:50:18;6.35;;;4.80;;
76593;SDS011;65482;50.240;14.302;2023-05-07T07:52:44;5.80;;;4.32;;
76593;SDS011;65482;50.240;14.302;2023-05-07T07:55:10;6.25;;;4.63;;
76593;SDS011;65482;50.240;14.302;2023-05-07T07:57:36;6.07;;;4.82;;
76593;SDS011;65482;50.240;14.302;2023-05-07T08:00:02;7.63;;;4.82;;
76593;SDS011;65482;50.240;14.302;2023-05-07T08:02:28;5.93;;;4.38;;
76593;SDS011;65482;50.240;14.302;2023-05-07T08:04:55;6.18;;;4.38;;
76593;SDS011;65482;50.240;14.302;2023-05-07T08:07:21;6.45;;;4.60;;
76593;SDS011;65482;50.240;14.302;2023-05-07T08:09:47;4.90;;;3.90;;
76593;SDS011;65482;50.240;14.302;2023-05-07T08:12:14;6.00;;;4.50;;
76593;SDS011;65482;50.240;14.302;2023-05-07T08:14:39;6.45;;;4.70;;
76593;SDS011;65482;50.240;14.302;2023-05-07T08:17:05;5.78;;;4.40;;
76593;SDS011;65482;50.240;14.302;2023-05-07T08:19:31;6.75;;;4.80;;
76593;SDS011;65482;50.240;14.302;2023-05-07T08:21:57;6.43;;;5.05;;
76593;SDS011;65482;50.240;14.302;2023-05-07T08:24:22;6.97;;;4.30;;
76593;SDS011;65482;50.240;14.302;2023-05-07T08:26:48;4.97;;;4.05;;
76593;SDS011;65482;50.240;14.302;2023-05-07T08:29:15;5.18;;;4.20;;
76593;SDS011;65482;50.240;14.302;2023-05-07T08:31:41;5.00;;;3.85;;
76593;SDS011;65482;50.240;14.302;2023-05-07T08:34:06;5.68;;;4.57;;
76593;SDS011;65482;50.240;14.302;2023-05-07T08:36:32;5.30;;;4.18;;
76593;SDS011;65482;50.240;14.302;2023-05-07T08:38:59;5.97;;;4.43;;
76593;SDS011;65482;50.240;14.302;2023-05-07T08:41:25;5.85;;;4.68;;
76593;SDS011;65482;50.240;14.302;2023-05-07T08:43:51;7.70;;;4.38;;
76593;SDS011;65482;50.240;14.302;2023-05-07T08:46:18;5.10;;;4.30;;
76593;SDS011;65482;50.240;14.302;2023-05-07T08:48:45;4.80;;;4.05;;
76593;SDS011;65482;50.240;14.302;2023-05-07T08:51:15;6.65;;;4.60;;
76593;SDS011;65482;50.240;14.302;2023-05-07T08:53:43;5.53;;;4.30;;
76593;SDS011;65482;50.240;14.302;2023-05-07T08:56:11;6.18;;;4.53;;
76593;SDS011;65482;50.240;14.302;2023-05-07T08:58:37;6.15;;;4.28;;
76593;SDS011;65482;50.240;14.302;2023-05-07T09:01:05;6.30;;;4.78;;
76593;SDS011;65482;50.240;14.302;2023-05-07T09:03:32;5.07;;;4.18;;
76593;SDS011;65482;50.240;14.302;2023-05-07T09:05:59;4.93;;;4.43;;
76593;SDS011;65482;50.240;14.302;2023-05-07T09:08:25;7.18;;;4.20;;
76593;SDS011;65482;50.240;14.302;2023-05-07T09:10:52;8.43;;;4.95;;
76593;SDS011;65482;50.240;14.302;2023-05-07T09:13:17;7.90;;;4.80;;
76593;SDS011;65482;50.240;14.302;2023-05-07T09:15:43;6.05;;;4.70;;
76593;SDS011;65482;50.240;14.302;2023-05-07T09:18:09;5.43;;;4.55;;
76593;SDS011;65482;50.240;14.302;2023-05-07T09:20:36;5.57;;;4.50;;
76593;SDS011;65482;50.240;14.302;2023-05-07T09:23:02;6.22;;;4.80;;
76593;SDS011;65482;50.240;14.302;2023-05-07T09:25:28;6.25;;;4.05;;
76593;SDS011;65482;50.240;14.302;2023-05-07T09:27:55;5.75;;;4.60;;
76593;SDS011;65482;50.240;14.302;2023-05-07T09:30:21;6.25;;;4.47;;
76593;SDS011;65482;50.240;14.302;2023-05-07T09:32:47;5.95;;;4.13;;
76593;SDS011;65482;50.240;14.302;2023-05-07T09:35:16;5.47;;;4.10;;
76593;SDS011;65482;50.240;14.302;2023-05-07T09:37:42;4.80;;;4.00;;
76593;SDS011;65482;50.240;14.302;2023-05-07T09:40:08;4.95;;;4.28;;
76593;SDS011;65482;50.240;14.302;2023-05-07T09:42:45;5.88;;;4.40;;
76593;SDS011;65482;50.240;14.302;2023-05-07T09:45:15;6.03;;;4.40;;
76593;SDS011;65482;50.240;14.302;2023-05-07T09:48:00;4.82;;;4.30;;
76593;SDS011;65482;50.240;14.302;2023-05-07T09:50:35;5.20;;;4.35;;
76593;SDS011;65482;50.240;14.302;2023-05-07T09:53:10;6.05;;;4.28;;
76593;SDS011;65482;50.240;14.302;2023-05-07T09:55:39;5.10;;;4.38;;
76593;SDS011;65482;50.240;14.302;2023-05-07T09:58:05;5.43;;;4.65;;
76593;SDS011;65482;50.240;14.302;2023-05-07T10:00:32;6.57;;;4.82;;
76593;SDS011;65482;50.240;14.302;2023-05-07T10:02:59;5.68;;;4.43;;
76593;SDS011;65482;50.240;14.302;2023-05-07T10:05:28;5.85;;;4.43;;
76593;SDS011;65482;50.240;14.302;2023-05-07T10:07:56;6.15;;;4.70;;
76593;SDS011;65482;50.240;14.302;2023-05-07T10:10:22;5.25;;;4.32;;
76593;SDS011;65482;50.240;14.302;2023-05-07T10:12:49;5.07;;;4.40;;
76593;SDS011;65482;50.240;14.302;2023-05-07T10:15:16;5.22;;;4.55;;
76593;SDS011;65482;50.240;14.302;2023-05-07T10:17:42;5.35;;;4.47;;
76593;SDS011;65482;50.240;14.302;2023-05-07T10:20:10;6.32;;;4.45;;
76593;SDS011;65482;50.240;14.302;2023-05-07T10:22:41;4.78;;;4.03;;
76593;SDS011;65482;50.240;14.302;2023-05-07T10:25:16;5.85;;;4.20;;
76593;SDS011;65482;50.240;14.302;2023-05-07T10:27:55;5.53;;;3.97;;
76593;SDS011;65482;50.240;14.302;2023-05-07T10:30:46;4.88;;;4.07;;
76593;SDS011;65482;50.240;14.302;2023-05-07T10:33:27;5.68;;;3.85;;
76593;SDS011;65482;50.240;14.302;2023-05-07T10:35:55;5.40;;;3.78;;
76593;SDS011;65482;50.240;14.302;2023-05-07T10:38:25;5.47;;;4.05;;
76593;SDS011;65482;50.240;14.302;2023-05-07T10:40:53;4.63;;;4.22;;
76593;SDS011;65482;50.240;14.302;2023-05-07T10:43:19;5.05;;;4.13;;
76593;SDS011;65482;50.240;14.302;2023-05-07T10:46:30;5.50;;;4.28;;
76593;SDS011;65482;50.240;14.302;2023-05-07T10:51:35;5.72;;;4.10;;
76593;SDS011;65482;50.240;14.302;2023-05-07T10:56:37;5.05;;;4.38;;
76593;SDS011;65482;50.240;14.302;2023-05-07T11:01:56;5.78;;;4.18;;
76593;SDS011;65482;50.240;14.302;2023-05-07T11:04:23;5.90;;;4.20;;
76593;SDS011;65482;50.240;14.302;2023-05-07T11:07:38;5.60;;;4.47;;
76593;SDS011;65482;50.240;14.302;2023-05-07T11:15:12;5.60;;;4.38;;
76593;SDS011;65482;50.240;14.302;2023-05-07T11:17:54;5.70;;;4.55;;
76593;SDS011;65482;50.240;14.302;2023-05-07T11:20:20;8.43;;;4.85;;
76593;SDS011;65482;50.240;14.302;2023-05-07T11:22:49;6.55;;;5.20;;
76593;SDS011;65482;50.240;14.302;2023-05-07T11:25:18;5.28;;;4.55;;
76593;SDS011;65482;50.240;14.302;2023-05-07T11:27:46;5.50;;;4.55;;
76593;SDS011;65482;50.240;14.302;2023-05-07T11:30:18;8.07;;;5.60;;
76593;SDS011;65482;50.240;14.302;2023-05-07T11:32:46;6.40;;;4.53;;
76593;SDS011;65482;50.240;14.302;2023-05-07T11:35:13;6.07;;;4.60;;
76593;SDS011;65482;50.240;14.302;2023-05-07T11:37:40;6.22;;;4.97;;
76593;SDS011;65482;50.240;14.302;2023-05-07T11:40:07;15.43;;;7.90;;
76593;SDS011;65482;50.240;14.302;2023-05-07T11:42:39;5.90;;;4.47;;
76593;SDS011;65482;50.240;14.302;2023-05-07T11:45:07;10.30;;;8.63;;
76593;SDS011;65482;50.240;14.302;2023-05-07T11:47:34;14.18;;;10.18;;
76593;SDS011;65482;50.240;14.302;2023-05-07T11:50:07;11.77;;;7.90;;
76593;SDS011;65482;50.240;14.302;2023-05-07T11:52:34;22.52;;;15.82;;
76593;SDS011;65482;50.240;14.302;2023-05-07T11:55:02;7.97;;;6.10;;
76593;SDS011;65482;50.240;14.302;2023-05-07T11:57:29;5.82;;;5.00;;
76593;SDS011;65482;50.240;14.302;2023-05-07T11:59:56;6.22;;;4.93;;
76593;SDS011;65482;50.240;14.302;2023-05-07T12:02:23;7.13;;;5.63;;
76593;SDS011;65482;50.240;14.302;2023-05-07T12:04:54;7.88;;;5.75;;
76593;SDS011;65482;50.240;14.302;2023-05-07T12:07:27;6.40;;;5.15;;
76593;SDS011;65482;50.240;14.302;2023-05-07T12:09:53;6.47;;;4.90;;
76593;SDS011;65482;50.240;14.302;2023-05-07T12:12:19;7.55;;;6.57;;
76593;SDS011;65482;50.240;14.302;2023-05-07T12:14:45;6.22;;;5.30;;
76593;SDS011;65482;50.240;14.302;2023-05-07T12:17:12;7.45;;;4.93;;
76593;SDS011;65482;50.240;14.302;2023-05-07T12:19:39;5.97;;;4.57;;
76593;SDS011;65482;50.240;14.302;2023-05-07T12:22:07;8.55;;;7.07;;
76593;SDS011;65482;50.240;14.302;2023-05-07T12:24:45;6.45;;;5.40;;
76593;SDS011;65482;50.240;14.302;2023-05-07T12:27:16;6.15;;;4.85;;
76593;SDS011;65482;50.240;14.302;2023-05-07T12:29:44;6.10;;;5.20;;
76593;SDS011;65482;50.240;14.302;2023-05-07T12:32:13;5.97;;;5.03;;
76593;SDS011;65482;50.240;14.302;2023-05-07T12:34:40;9.05;;;5.60;;
76593;SDS011;65482;50.240;14.302;2023-05-07T12:37:06;6.97;;;5.15;;
76593;SDS011;65482;50.240;14.302;2023-05-07T12:39:32;5.90;;;5.15;;
76593;SDS011;65482;50.240;14.302;2023-05-07T12:41:58;6.85;;;5.43;;
76593;SDS011;65482;50.240;14.302;2023-05-07T12:44:32;7.32;;;5.97;;
76593;SDS011;65482;50.240;14.302;2023-05-07T12:47:00;10.38;;;7.88;;
76593;SDS011;65482;50.240;14.302;2023-05-07T12:49:27;6.60;;;5.45;;
76593;SDS011;65482;50.240;14.302;2023-05-07T12:51:53;7.45;;;5.60;;
76593;SDS011;65482;50.240;14.302;2023-05-07T12:54:33;5.88;;;4.80;;
76593;SDS011;65482;50.240;14.302;2023-05-07T12:57:01;9.93;;;4.78;;
76593;SDS011;65482;50.240;14.302;2023-05-07T12:59:33;8.52;;;6.60;;
76593;SDS011;65482;50.240;14.302;2023-05-07T13:02:02;6.60;;;4.65;;
76593;SDS011;65482;50.240;14.302;2023-05-07T13:04:28;6.57;;;5.00;;
76593;SDS011;65482;50.240;14.302;2023-05-07T13:06:54;5.28;;;4.53;;
76593;SDS011;65482;50.240;14.302;2023-05-07T13:09:23;7.60;;;5.25;;
76593;SDS011;65482;50.240;14.302;2023-05-07T13:11:49;5.28;;;4.72;;
76593;SDS011;65482;50.240;14.302;2023-05-07T13:14:14;5.68;;;4.57;;
76593;SDS011;65482;50.240;14.302;2023-05-07T13:16:40;8.60;;;7.35;;
76593;SDS011;65482;50.240;14.302;2023-05-07T13:19:06;5.97;;;5.18;;
76593;SDS011;65482;50.240;14.302;2023-05-07T13:21:32;5.82;;;4.45;;
76593;SDS011;65482;50.240;14.302;2023-05-07T13:23:58;5.18;;;4.63;;
76593;SDS011;65482;50.240;14.302;2023-05-07T13:26:31;6.45;;;4.38;;
76593;SDS011;65482;50.240;14.302;2023-05-07T13:28:57;4.28;;;3.88;;
76593;SDS011;65482;50.240;14.302;2023-05-07T13:31:26;4.93;;;3.97;;
76593;SDS011;65482;50.240;14.302;2023-05-07T13:33:52;4.70;;;4.15;;
76593;SDS011;65482;50.240;14.302;2023-05-07T13:36:18;5.13;;;4.57;;
76593;SDS011;65482;50.240;14.302;2023-05-07T13:38:45;5.80;;;5.13;;
76593;SDS011;65482;50.240;14.302;2023-05-07T13:41:12;7.25;;;4.07;;
76593;SDS011;65482;50.240;14.302;2023-05-07T13:43:39;7.18;;;6.47;;
76593;SDS011;65482;50.240;14.302;2023-05-07T13:46:06;5.28;;;4.78;;
76593;SDS011;65482;50.240;14.302;2023-05-07T13:48:33;8.18;;;6.95;;
76593;SDS011;65482;50.240;14.302;2023-05-07T13:51:00;4.63;;;3.60;;
76593;SDS011;65482;50.240;14.302;2023-05-07T13:53:26;7.82;;;6.85;;
76593;SDS011;65482;50.240;14.302;2023-05-07T13:55:52;4.60;;;3.97;;
76593;SDS011;65482;50.240;14.302;2023-05-07T13:58:17;5.47;;;4.80;;
76593;SDS011;65482;50.240;14.302;2023-05-07T14:00:43;8.63;;;6.50;;
76593;SDS011;65482;50.240;14.302;2023-05-07T14:03:08;5.22;;;4.22;;
76593;SDS011;65482;50.240;14.302;2023-05-07T14:05:35;6.30;;;4.95;;
76593;SDS011;65482;50.240;14.302;2023-05-07T14:08:01;5.50;;;4.00;;
76593;SDS011;65482;50.240;14.302;2023-05-07T14:10:28;5.15;;;3.83;;
76593;SDS011;65482;50.240;14.302;2023-05-07T14:12:53;5.97;;;4.07;;
76593;SDS011;65482;50.240;14.302;2023-05-07T14:15:19;4.75;;;3.95;;
76593;SDS011;65482;50.240;14.302;2023-05-07T14:17:46;4.32;;;3.88;;
76593;SDS011;65482;50.240;14.302;2023-05-07T14:20:12;4.40;;;3.97;;
76593;SDS011;65482;50.240;14.302;2023-05-07T14:22:37;7.18;;;4.60;;
76593;SDS011;65482;50.240;14.302;2023-05-07T14:25:03;4.35;;;3.83;;
76593;SDS011;65482;50.240;14.302;2023-05-07T14:27:29;4.28;;;3.65;;
76593;SDS011;65482;50.240;14.302;2023-05-07T14:29:57;4.70;;;3.67;;
76593;SDS011;65482;50.240;14.302;2023-05-07T14:32:22;7.95;;;4.50;;
76593;SDS011;65482;50.240;14.302;2023-05-07T14:34:48;5.22;;;3.90;;
76593;SDS011;65482;50.240;14.302;2023-05-07T14:37:13;15.30;;;10.43;;
76593;SDS011;65482;50.240;14.302;2023-05-07T14:39:40;5.43;;;4.03;;